sensor_id;sensor_type;location;lat;lon;timestamp;P1;durP1;ratioP1;P2;durP2;ratioP2
70981;SDS011;58640;51.320;9.456;2022-10-16T00:01:10;1.65;;;1.55;;
70981;SDS011;58640;51.320;9.456;2022-10-16T00:03:38;1.77;;;1.60;;
70981;SDS011;58640;51.320;9.456;2022-10-16T00:06:04;2.30;;;2.05;;
70981;SDS011;58640;51.320;9.456;2022-10-16T00:08:29;5.07;;;1.90;;
70981;SDS011;58640;51.320;9.456;2022-10-16T00:10:59;2.13;;;1.95;;
70981;SDS011;58640;51.320;9.456;2022-10-16T00:13:32;5.55;;;2.00;;
70981;SDS011;58640;51.320;9.456;2022-10-16T00:15:59;3.67;;;2.03;;
70981;SDS011;58640;51.320;9.456;2022-10-16T00:18:26;1.80;;;1.70;;
70981;SDS011;58640;51.320;9.456;2022-10-16T00:20:52;3.72;;;2.00;;
70981;SDS011;58640;51.320;9.456;2022-10-16T00:23:17;6.57;;;2.45;;
70981;SDS011;58640;51.320;9.456;2022-10-16T00:25:43;1.85;;;1.75;;
70981;SDS011;58640;51.320;9.456;2022-10-16T00:28:09;2.35;;;2.15;;
70981;SDS011;58640;51.320;9.456;2022-10-16T00:30:37;2.17;;;1.98;;
70981;SDS011;58640;51.320;9.456;2022-10-16T00:33:03;4.10;;;2.13;;
70981;SDS011;58640;51.320;9.456;2022-10-16T00:35:28;1.95;;;1.80;;
70981;SDS011;58640;51.320;9.456;2022-10-16T00:37:54;2.25;;;2.05;;
70981;SDS011;58640;51.320;9.456;2022-10-16T00:40:19;2.25;;;1.90;;
70981;SDS011;58640;51.320;9.456;2022-10-16T00:42:45;2.75;;;2.50;;
70981;SDS011;58640;51.320;9.456;2022-10-16T00:45:10;2.72;;;2.45;;
70981;SDS011;58640;51.320;9.456;2022-10-16T00:47:37;2.20;;;2.10;;
70981;SDS011;58640;51.320;9.456;2022-10-16T00:50:24;3.97;;;2.40;;
70981;SDS011;58640;51.320;9.456;2022-10-16T00:52:53;2.70;;;2.50;;
70981;SDS011;58640;51.320;9.456;2022-10-16T00:55:20;6.10;;;2.78;;
70981;SDS011;58640;51.320;9.456;2022-10-16T00:57:46;3.10;;;2.38;;
70981;SDS011;58640;51.320;9.456;2022-10-16T01:00:13;2.47;;;2.17;;
70981;SDS011;58640;51.320;9.456;2022-10-16T01:02:41;3.67;;;2.25;;
70981;SDS011;58640;51.320;9.456;2022-10-16T01:05:06;2.75;;;2.20;;
70981;SDS011;58640;51.320;9.456;2022-10-16T01:13:01;2.75;;;2.55;;
70981;SDS011;58640;51.320;9.456;2022-10-16T01:18:05;4.82;;;2.42;;
70981;SDS011;58640;51.320;9.456;2022-10-16T01:20:35;2.40;;;2.17;;
70981;SDS011;58640;51.320;9.456;2022-10-16T01:31:22;3.10;;;2.67;;
70981;SDS011;58640;51.320;9.456;2022-10-16T01:33:52;2.97;;;2.75;;
70981;SDS011;58640;51.320;9.456;2022-10-16T01:36:26;3.97;;;2.95;;
70981;SDS011;58640;51.320;9.456;2022-10-16T01:39:00;3.13;;;2.92;;
70981;SDS011;58640;51.320;9.456;2022-10-16T01:41:30;4.55;;;2.75;;
70981;SDS011;58640;51.320;9.456;2022-10-16T01:46:24;3.03;;;2.80;;
70981;SDS011;58640;51.320;9.456;2022-10-16T01:48:51;2.58;;;2.38;;
70981;SDS011;58640;51.320;9.456;2022-10-16T01:51:17;3.17;;;2.85;;
70981;SDS011;58640;51.320;9.456;2022-10-16T01:53:47;2.80;;;2.50;;
70981;SDS011;58640;51.320;9.456;2022-10-16T01:56:17;3.20;;;2.90;;
70981;SDS011;58640;51.320;9.456;2022-10-16T01:58:47;3.42;;;2.78;;
70981;SDS011;58640;51.320;9.456;2022-10-16T02:01:16;2.45;;;2.25;;
70981;SDS011;58640;51.320;9.456;2022-10-16T02:03:45;4.13;;;2.30;;
70981;SDS011;58640;51.320;9.456;2022-10-16T02:06:15;3.30;;;2.55;;
70981;SDS011;58640;51.320;9.456;2022-10-16T02:08:41;3.33;;;2.42;;
70981;SDS011;58640;51.320;9.456;2022-10-16T02:11:09;3.42;;;2.55;;
70981;SDS011;58640;51.320;9.456;2022-10-16T02:13:51;4.10;;;2.20;;
70981;SDS011;58640;51.320;9.456;2022-10-16T02:16:20;2.42;;;2.20;;
70981;SDS011;58640;51.320;9.456;2022-10-16T02:18:45;2.58;;;2.42;;
70981;SDS011;58640;51.320;9.456;2022-10-16T02:26:27;3.53;;;2.95;;
70981;SDS011;58640;51.320;9.456;2022-10-16T02:28:58;3.15;;;2.85;;
70981;SDS011;58640;51.320;9.456;2022-10-16T02:31:30;3.33;;;2.90;;
70981;SDS011;58640;51.320;9.456;2022-10-16T02:34:00;7.80;;;2.92;;
70981;SDS011;58640;51.320;9.456;2022-10-16T02:36:29;7.15;;;2.80;;
70981;SDS011;58640;51.320;9.456;2022-10-16T02:38:56;4.00;;;2.88;;
70981;SDS011;58640;51.320;9.456;2022-10-16T02:41:26;4.75;;;3.00;;
70981;SDS011;58640;51.320;9.456;2022-10-16T02:43:52;3.63;;;3.05;;
70981;SDS011;58640;51.320;9.456;2022-10-16T02:46:18;4.18;;;3.08;;
70981;SDS011;58640;51.320;9.456;2022-10-16T02:48:44;3.75;;;3.33;;
70981;SDS011;58640;51.320;9.456;2022-10-16T02:51:09;3.78;;;3.47;;
70981;SDS011;58640;51.320;9.456;2022-10-16T02:53:34;3.80;;;3.47;;
70981;SDS011;58640;51.320;9.456;2022-10-16T02:56:00;4.38;;;3.00;;
70981;SDS011;58640;51.320;9.456;2022-10-16T02:58:26;3.85;;;3.55;;
70981;SDS011;58640;51.320;9.456;2022-10-16T03:00:51;6.25;;;3.65;;
70981;SDS011;58640;51.320;9.456;2022-10-16T03:03:16;6.78;;;3.80;;
70981;SDS011;58640;51.320;9.456;2022-10-16T03:05:42;4.72;;;4.00;;
70981;SDS011;58640;51.320;9.456;2022-10-16T03:08:10;7.15;;;4.40;;
70981;SDS011;58640;51.320;9.456;2022-10-16T03:10:36;4.72;;;3.60;;
70981;SDS011;58640;51.320;9.456;2022-10-16T03:13:01;7.20;;;4.82;;
70981;SDS011;58640;51.320;9.456;2022-10-16T03:15:27;5.30;;;4.47;;
70981;SDS011;58640;51.320;9.456;2022-10-16T03:17:53;4.72;;;4.32;;
70981;SDS011;58640;51.320;9.456;2022-10-16T03:20:19;4.75;;;4.35;;
70981;SDS011;58640;51.320;9.456;2022-10-16T03:22:44;5.63;;;5.13;;
70981;SDS011;58640;51.320;9.456;2022-10-16T03:25:10;5.40;;;4.90;;
70981;SDS011;58640;51.320;9.456;2022-10-16T03:27:35;5.38;;;4.40;;
70981;SDS011;58640;51.320;9.456;2022-10-16T03:30:01;5.40;;;4.57;;
70981;SDS011;58640;51.320;9.456;2022-10-16T03:32:27;5.15;;;4.70;;
70981;SDS011;58640;51.320;9.456;2022-10-16T03:34:53;5.32;;;4.82;;
70981;SDS011;58640;51.320;9.456;2022-10-16T03:37:19;5.50;;;4.97;;
70981;SDS011;58640;51.320;9.456;2022-10-16T03:39:44;7.05;;;5.60;;
70981;SDS011;58640;51.320;9.456;2022-10-16T03:42:10;8.93;;;5.53;;
70981;SDS011;58640;51.320;9.456;2022-10-16T03:44:35;5.60;;;4.80;;
70981;SDS011;58640;51.320;9.456;2022-10-16T03:47:00;6.13;;;4.85;;
70981;SDS011;58640;51.320;9.456;2022-10-16T03:49:26;5.55;;;5.07;;
70981;SDS011;58640;51.320;9.456;2022-10-16T03:51:51;8.85;;;5.38;;
70981;SDS011;58640;51.320;9.456;2022-10-16T03:54:16;6.05;;;5.55;;
70981;SDS011;58640;51.320;9.456;2022-10-16T03:56:42;5.93;;;5.38;;
70981;SDS011;58640;51.320;9.456;2022-10-16T03:59:07;5.32;;;4.85;;
70981;SDS011;58640;51.320;9.456;2022-10-16T04:01:32;12.57;;;6.28;;
70981;SDS011;58640;51.320;9.456;2022-10-16T04:03:58;6.45;;;5.43;;
70981;SDS011;58640;51.320;9.456;2022-10-16T04:06:23;5.63;;;4.82;;
70981;SDS011;58640;51.320;9.456;2022-10-16T04:08:48;6.60;;;5.85;;
70981;SDS011;58640;51.320;9.456;2022-10-16T04:11:14;6.57;;;5.88;;
70981;SDS011;58640;51.320;9.456;2022-10-16T04:13:39;5.82;;;5.43;;
70981;SDS011;58640;51.320;9.456;2022-10-16T04:16:05;6.63;;;5.80;;
70981;SDS011;58640;51.320;9.456;2022-10-16T04:18:30;8.30;;;5.47;;
70981;SDS011;58640;51.320;9.456;2022-10-16T04:20:56;10.27;;;5.57;;
70981;SDS011;58640;51.320;9.456;2022-10-16T04:23:21;5.65;;;5.15;;
70981;SDS011;58640;51.320;9.456;2022-10-16T04:25:48;8.23;;;5.57;;
70981;SDS011;58640;51.320;9.456;2022-10-16T04:28:13;5.15;;;4.70;;
70981;SDS011;58640;51.320;9.456;2022-10-16T04:30:38;5.43;;;4.65;;
70981;SDS011;58640;51.320;9.456;2022-10-16T04:33:04;5.45;;;4.95;;
70981;SDS011;58640;51.320;9.456;2022-10-16T04:35:29;8.73;;;4.78;;
70981;SDS011;58640;51.320;9.456;2022-10-16T04:37:56;6.60;;;4.70;;
70981;SDS011;58640;51.320;9.456;2022-10-16T04:40:22;6.47;;;4.50;;
70981;SDS011;58640;51.320;9.456;2022-10-16T04:42:48;5.88;;;3.75;;
70981;SDS011;58640;51.320;9.456;2022-10-16T04:45:13;7.10;;;4.22;;
70981;SDS011;58640;51.320;9.456;2022-10-16T04:47:38;7.28;;;4.70;;
70981;SDS011;58640;51.320;9.456;2022-10-16T04:50:04;10.05;;;4.95;;
70981;SDS011;58640;51.320;9.456;2022-10-16T04:52:29;11.82;;;4.95;;
70981;SDS011;58640;51.320;9.456;2022-10-16T04:54:56;8.15;;;4.65;;
70981;SDS011;58640;51.320;9.456;2022-10-16T04:57:25;12.82;;;4.57;;
70981;SDS011;58640;51.320;9.456;2022-10-16T04:59:51;9.55;;;4.65;;
70981;SDS011;58640;51.320;9.456;2022-10-16T05:02:17;5.88;;;4.03;;
70981;SDS011;58640;51.320;9.456;2022-10-16T05:04:42;5.10;;;3.75;;
70981;SDS011;58640;51.320;9.456;2022-10-16T05:07:07;4.13;;;3.72;;
70981;SDS011;58640;51.320;9.456;2022-10-16T05:09:33;4.13;;;3.08;;
70981;SDS011;58640;51.320;9.456;2022-10-16T05:11:58;4.10;;;3.70;;
70981;SDS011;58640;51.320;9.456;2022-10-16T05:14:24;6.47;;;3.63;;
70981;SDS011;58640;51.320;9.456;2022-10-16T05:17:01;3.88;;;3.58;;
70981;SDS011;58640;51.320;9.456;2022-10-16T05:27:05;4.82;;;4.32;;
70981;SDS011;58640;51.320;9.456;2022-10-16T06:15:24;4.15;;;2.80;;
70981;SDS011;58640;51.320;9.456;2022-10-16T06:18:00;4.43;;;2.67;;
70981;SDS011;58640;51.320;9.456;2022-10-16T07:12:57;1.50;;;0.93;;
70981;SDS011;58640;51.320;9.456;2022-10-16T07:15:22;1.67;;;1.05;;
70981;SDS011;58640;51.320;9.456;2022-10-16T07:17:48;2.17;;;0.70;;
70981;SDS011;58640;51.320;9.456;2022-10-16T07:20:13;0.88;;;0.85;;
70981;SDS011;58640;51.320;9.456;2022-10-16T07:22:39;0.70;;;0.63;;
70981;SDS011;58640;51.320;9.456;2022-10-16T07:25:04;2.33;;;0.80;;
70981;SDS011;58640;51.320;9.456;2022-10-16T07:27:30;1.80;;;1.52;;
70981;SDS011;58640;51.320;9.456;2022-10-16T07:29:55;1.70;;;0.75;;
70981;SDS011;58640;51.320;9.456;2022-10-16T07:32:21;2.30;;;1.15;;
70981;SDS011;58640;51.320;9.456;2022-10-16T07:34:46;1.42;;;0.68;;
70981;SDS011;58640;51.320;9.456;2022-10-16T07:37:11;1.13;;;0.68;;
70981;SDS011;58640;51.320;9.456;2022-10-16T07:39:37;1.45;;;1.35;;
70981;SDS011;58640;51.320;9.456;2022-10-16T07:42:02;1.33;;;0.60;;
70981;SDS011;58640;51.320;9.456;2022-10-16T07:44:27;0.98;;;0.85;;
70981;SDS011;58640;51.320;9.456;2022-10-16T07:46:53;2.22;;;1.17;;
70981;SDS011;58640;51.320;9.456;2022-10-16T07:49:18;4.28;;;0.95;;
70981;SDS011;58640;51.320;9.456;2022-10-16T07:51:43;2.22;;;0.80;;
70981;SDS011;58640;51.320;9.456;2022-10-16T07:54:09;1.40;;;0.85;;
70981;SDS011;58640;51.320;9.456;2022-10-16T07:56:35;1.58;;;1.17;;
70981;SDS011;58640;51.320;9.456;2022-10-16T07:59:00;2.65;;;1.20;;
70981;SDS011;58640;51.320;9.456;2022-10-16T08:01:26;1.20;;;1.10;;
70981;SDS011;58640;51.320;9.456;2022-10-16T08:03:51;1.80;;;1.20;;
70981;SDS011;58640;51.320;9.456;2022-10-16T08:06:17;3.03;;;1.05;;
70981;SDS011;58640;51.320;9.456;2022-10-16T08:08:43;2.05;;;1.00;;
70981;SDS011;58640;51.320;9.456;2022-10-16T08:11:09;0.90;;;0.90;;
70981;SDS011;58640;51.320;9.456;2022-10-16T08:13:34;1.20;;;1.10;;
70981;SDS011;58640;51.320;9.456;2022-10-16T08:16:00;1.42;;;1.27;;
70981;SDS011;58640;51.320;9.456;2022-10-16T08:18:26;4.63;;;1.33;;
70981;SDS011;58640;51.320;9.456;2022-10-16T08:20:55;3.42;;;0.90;;
70981;SDS011;58640;51.320;9.456;2022-10-16T08:23:22;1.38;;;1.00;;
70981;SDS011;58640;51.320;9.456;2022-10-16T08:25:47;1.50;;;1.00;;
70981;SDS011;58640;51.320;9.456;2022-10-16T08:28:13;4.57;;;1.67;;
70981;SDS011;58640;51.320;9.456;2022-10-16T08:30:38;1.55;;;1.00;;
70981;SDS011;58640;51.320;9.456;2022-10-16T08:33:04;4.10;;;3.00;;
70981;SDS011;58640;51.320;9.456;2022-10-16T08:35:29;3.85;;;1.10;;
70981;SDS011;58640;51.320;9.456;2022-10-16T08:37:55;3.00;;;0.90;;
70981;SDS011;58640;51.320;9.456;2022-10-16T08:40:22;2.55;;;1.10;;
70981;SDS011;58640;51.320;9.456;2022-10-16T08:48:08;2.05;;;1.02;;
70981;SDS011;58640;51.320;9.456;2022-10-16T08:50:42;3.70;;;0.80;;
70981;SDS011;58640;51.320;9.456;2022-10-16T08:53:10;2.95;;;1.30;;
